createdAt,value
2023-12-31T00:01:45.944Z,5.00
2023-12-31T00:04:13.488Z,4.80
2023-12-31T00:06:40.421Z,5.37
2023-12-31T00:09:07.278Z,4.97
2023-12-31T00:11:34.602Z,5.60
2023-12-31T00:14:01.535Z,5.57
2023-12-31T00:16:28.438Z,5.60
2023-12-31T00:18:55.646Z,6.03
2023-12-31T00:21:22.432Z,6.43
2023-12-31T00:23:49.585Z,7.90
2023-12-31T00:26:16.332Z,7.17
2023-12-31T00:28:43.372Z,8.47
2023-12-31T00:31:10.168Z,8.37
2023-12-31T00:33:37.033Z,8.43
2023-12-31T00:36:04.096Z,8.43
2023-12-31T00:38:31.186Z,8.53
2023-12-31T00:40:58.173Z,8.97
2023-12-31T00:43:25.030Z,8.90
2023-12-31T00:45:51.881Z,11.00
2023-12-31T00:48:18.713Z,8.40
2023-12-31T00:50:45.619Z,9.43
2023-12-31T00:53:12.794Z,8.80
2023-12-31T00:55:40.099Z,9.43
2023-12-31T00:58:08.635Z,10.50
2023-12-31T01:00:35.579Z,9.03
2023-12-31T01:03:02.867Z,9.80
2023-12-31T01:05:30.043Z,9.53
2023-12-31T01:07:57.166Z,10.33
2023-12-31T01:10:24.185Z,10.00
2023-12-31T01:12:51.119Z,10.50
2023-12-31T01:15:17.870Z,10.23
2023-12-31T01:17:44.846Z,11.37
2023-12-31T01:20:12.343Z,10.23
2023-12-31T01:22:39.455Z,10.97
2023-12-31T01:25:06.726Z,10.37
2023-12-31T01:27:33.655Z,10.20
2023-12-31T01:30:00.717Z,11.10
2023-12-31T01:32:29.173Z,10.93
2023-12-31T01:35:04.255Z,11.20
2023-12-31T01:37:31.160Z,11.13
2023-12-31T01:39:59.141Z,10.90
2023-12-31T01:42:26.040Z,11.50
2023-12-31T01:44:53.199Z,10.73
2023-12-31T01:47:20.783Z,10.97
2023-12-31T01:49:47.654Z,10.43
2023-12-31T01:52:15.060Z,10.37
2023-12-31T01:54:42.546Z,11.23
2023-12-31T01:57:11.327Z,10.83
2023-12-31T01:59:38.942Z,10.63
2023-12-31T02:02:05.917Z,11.53
2023-12-31T02:04:36.979Z,10.30
2023-12-31T02:07:04.196Z,9.93
2023-12-31T02:09:31.031Z,10.87
2023-12-31T02:11:58.962Z,10.57
2023-12-31T02:14:26.109Z,10.50
2023-12-31T02:16:53.155Z,11.03
2023-12-31T02:19:20.913Z,11.30
2023-12-31T02:21:47.880Z,12.53
2023-12-31T02:24:16.302Z,12.27
2023-12-31T02:26:46.313Z,12.63
2023-12-31T02:29:13.191Z,16.70
2023-12-31T02:31:40.443Z,20.83
2023-12-31T02:34:09.962Z,15.80
2023-12-31T02:36:36.721Z,12.37
2023-12-31T02:39:03.538Z,12.80
2023-12-31T02:41:33.156Z,11.07
2023-12-31T02:43:59.967Z,10.90
2023-12-31T02:46:26.781Z,10.23
2023-12-31T02:48:53.751Z,10.27
2023-12-31T02:51:20.512Z,10.97
2023-12-31T02:53:47.331Z,10.20
2023-12-31T02:56:14.073Z,10.23
2023-12-31T02:58:41.208Z,9.40
2023-12-31T03:01:08.202Z,8.60
2023-12-31T03:03:35.055Z,11.13
2023-12-31T03:06:02.301Z,9.07
2023-12-31T03:08:29.083Z,9.57
2023-12-31T03:10:55.877Z,10.40
2023-12-31T03:13:22.681Z,9.90
2023-12-31T03:15:49.593Z,10.43
2023-12-31T03:18:16.507Z,9.63
2023-12-31T03:20:43.397Z,9.00
2023-12-31T03:23:10.411Z,8.90
2023-12-31T03:25:37.386Z,8.70
2023-12-31T03:28:04.451Z,8.13
2023-12-31T03:30:31.275Z,8.77
2023-12-31T03:32:58.126Z,8.17
2023-12-31T03:35:25.160Z,8.60
2023-12-31T03:37:51.969Z,8.93
2023-12-31T03:40:19.153Z,8.43
2023-12-31T03:42:45.898Z,9.50
2023-12-31T03:45:12.760Z,9.17
2023-12-31T03:47:39.692Z,9.00
2023-12-31T03:50:07.266Z,9.03
2023-12-31T03:52:34.335Z,8.93
2023-12-31T03:55:01.369Z,9.33
2023-12-31T03:57:28.160Z,9.70
2023-12-31T03:59:54.914Z,9.00
2023-12-31T04:02:21.992Z,10.13
2023-12-31T04:04:49.126Z,9.50
2023-12-31T04:07:15.961Z,9.67
2023-12-31T04:09:42.722Z,9.97
2023-12-31T04:12:10.049Z,10.07
2023-12-31T04:14:37.197Z,10.77
2023-12-31T04:17:04.391Z,9.53
2023-12-31T04:19:31.336Z,10.13
2023-12-31T04:21:58.122Z,9.63
2023-12-31T04:24:25.006Z,10.03
2023-12-31T04:26:51.934Z,10.27
2023-12-31T04:29:18.780Z,10.07
2023-12-31T04:31:52.441Z,8.93
2023-12-31T04:34:21.710Z,10.37
2023-12-31T04:36:48.538Z,10.73
2023-12-31T04:39:15.408Z,10.23
2023-12-31T04:41:42.248Z,11.37
2023-12-31T04:44:09.150Z,10.93
2023-12-31T04:46:36.436Z,9.87
2023-12-31T04:49:03.317Z,10.17
2023-12-31T04:51:31.557Z,9.57
2023-12-31T04:53:59.270Z,10.17
2023-12-31T04:56:27.111Z,9.93
2023-12-31T04:58:55.830Z,11.30
2023-12-31T05:01:23.946Z,10.07
2023-12-31T05:03:51.275Z,10.23
2023-12-31T05:06:18.703Z,11.47
2023-12-31T05:08:46.588Z,9.67
2023-12-31T05:11:15.204Z,10.90
2023-12-31T05:13:43.632Z,10.17
2023-12-31T05:16:14.908Z,10.63
2023-12-31T05:18:47.532Z,10.40
2023-12-31T05:21:14.587Z,11.03
2023-12-31T05:23:41.626Z,10.20
2023-12-31T05:26:08.523Z,9.77
2023-12-31T05:28:35.551Z,10.80
2023-12-31T05:31:02.562Z,9.83
2023-12-31T05:33:29.497Z,9.77
2023-12-31T05:35:56.704Z,10.90
2023-12-31T05:38:23.898Z,10.60
2023-12-31T05:40:51.190Z,9.77
2023-12-31T05:43:18.033Z,11.07
2023-12-31T05:45:44.801Z,11.30
2023-12-31T05:48:12.942Z,11.17
2023-12-31T05:50:40.134Z,11.13
2023-12-31T05:53:07.111Z,11.37
2023-12-31T05:55:34.270Z,11.57
2023-12-31T05:58:01.066Z,10.80
2023-12-31T06:00:28.282Z,10.83
2023-12-31T06:02:56.763Z,11.80
2023-12-31T06:05:23.817Z,9.57
2023-12-31T06:07:51.025Z,11.17
2023-12-31T06:10:18.081Z,10.70
2023-12-31T06:12:44.921Z,11.43
2023-12-31T06:15:12.439Z,11.10
2023-12-31T06:17:41.107Z,10.83
2023-12-31T06:20:08.559Z,9.97
2023-12-31T06:22:36.348Z,10.33
2023-12-31T06:25:04.146Z,10.67
2023-12-31T06:27:31.008Z,11.03
2023-12-31T06:29:59.070Z,11.77
2023-12-31T06:32:26.299Z,12.17
2023-12-31T06:34:53.323Z,11.40
2023-12-31T06:37:20.241Z,12.10
2023-12-31T06:39:47.916Z,12.20
2023-12-31T06:42:14.952Z,13.53
2023-12-31T06:44:42.766Z,13.23
2023-12-31T06:47:09.926Z,12.77
2023-12-31T06:49:36.981Z,12.23
2023-12-31T06:52:05.176Z,11.70
2023-12-31T06:54:32.170Z,11.70
2023-12-31T06:56:58.969Z,11.10
2023-12-31T06:59:26.796Z,12.40
2023-12-31T07:01:53.657Z,12.37
2023-12-31T07:04:20.527Z,11.83
2023-12-31T07:06:47.627Z,14.30
2023-12-31T07:09:14.361Z,12.80
2023-12-31T07:11:41.256Z,12.20
2023-12-31T07:14:08.131Z,12.63
2023-12-31T07:16:35.086Z,11.80
2023-12-31T07:19:02.157Z,12.97
2023-12-31T07:21:29.657Z,13.07
2023-12-31T07:23:57.190Z,13.47
2023-12-31T07:26:26.215Z,13.07
2023-12-31T07:28:53.925Z,12.80
2023-12-31T07:31:37.243Z,12.43
2023-12-31T07:34:05.293Z,12.47
2023-12-31T07:36:32.651Z,13.17
2023-12-31T07:39:00.558Z,11.67
2023-12-31T07:41:27.565Z,11.87
2023-12-31T07:43:54.401Z,11.17
2023-12-31T07:46:21.565Z,12.73
2023-12-31T07:48:48.744Z,11.77
2023-12-31T07:51:15.942Z,12.37
2023-12-31T07:53:42.727Z,11.63
2023-12-31T07:56:09.642Z,12.00
2023-12-31T07:58:36.954Z,11.90
2023-12-31T08:01:04.395Z,12.03
2023-12-31T08:03:32.593Z,13.10
2023-12-31T08:05:59.477Z,13.27
2023-12-31T08:08:26.826Z,12.67
2023-12-31T08:10:53.732Z,13.23
2023-12-31T08:13:20.828Z,12.90
2023-12-31T08:15:47.962Z,13.47
2023-12-31T08:18:15.444Z,12.70
2023-12-31T08:20:43.830Z,11.40
2023-12-31T08:23:11.116Z,13.27
2023-12-31T08:25:38.283Z,13.50
2023-12-31T08:28:05.384Z,12.07
2023-12-31T08:30:34.573Z,12.43
2023-12-31T08:33:01.931Z,11.77
2023-12-31T08:35:29.151Z,13.17
2023-12-31T08:37:56.474Z,13.17
2023-12-31T08:40:23.337Z,14.17
2023-12-31T08:42:50.197Z,13.40
2023-12-31T08:45:17.109Z,12.37
2023-12-31T08:47:44.763Z,14.17
2023-12-31T08:50:13.628Z,14.70
2023-12-31T08:52:45.733Z,14.23
2023-12-31T08:55:13.379Z,14.07
2023-12-31T08:57:49.599Z,14.93
2023-12-31T09:00:20.264Z,16.10
2023-12-31T09:02:48.458Z,17.10
2023-12-31T09:05:15.674Z,17.27
2023-12-31T09:07:43.198Z,18.33
2023-12-31T09:10:10.862Z,17.57
2023-12-31T09:12:37.955Z,15.37
2023-12-31T09:15:06.511Z,14.70
2023-12-31T09:17:36.740Z,15.03
2023-12-31T09:20:06.955Z,13.80
2023-12-31T09:22:34.635Z,12.43
2023-12-31T09:25:01.939Z,13.43
2023-12-31T09:27:28.767Z,13.70
2023-12-31T09:29:55.540Z,14.23
2023-12-31T09:32:22.434Z,15.10
2023-12-31T09:34:49.910Z,14.63
2023-12-31T09:37:20.720Z,13.33
2023-12-31T09:39:48.535Z,13.40
2023-12-31T09:42:20.519Z,13.50
2023-12-31T09:44:50.076Z,12.57
2023-12-31T09:47:16.970Z,12.90
2023-12-31T09:49:45.569Z,13.70
2023-12-31T09:52:14.211Z,14.13
2023-12-31T09:54:42.330Z,18.73
2023-12-31T09:57:13.147Z,18.00
2023-12-31T09:59:43.458Z,16.43
2023-12-31T10:02:17.138Z,18.70
2023-12-31T10:04:45.485Z,17.77
2023-12-31T10:07:13.796Z,14.83
2023-12-31T10:09:43.692Z,17.87
2023-12-31T10:12:11.145Z,18.90
2023-12-31T10:14:38.095Z,17.23
2023-12-31T10:17:08.990Z,17.07
2023-12-31T10:19:36.143Z,17.07
2023-12-31T10:22:06.860Z,16.33
2023-12-31T10:24:33.930Z,14.63
2023-12-31T10:27:06.297Z,15.53
2023-12-31T10:29:39.624Z,14.50
2023-12-31T10:32:07.478Z,14.50
2023-12-31T10:34:35.358Z,13.40
2023-12-31T10:37:06.303Z,14.50
2023-12-31T10:39:35.180Z,13.60
2023-12-31T10:42:06.966Z,14.13
2023-12-31T10:44:36.121Z,13.37
2023-12-31T10:47:16.581Z,16.00
2023-12-31T10:49:49.567Z,15.30
2023-12-31T10:52:17.364Z,14.30
2023-12-31T10:54:47.848Z,15.93
2023-12-31T10:57:17.874Z,16.00
2023-12-31T10:59:44.723Z,16.63
2023-12-31T11:02:17.485Z,13.80
2023-12-31T11:04:48.951Z,13.37
2023-12-31T11:07:20.585Z,14.07
2023-12-31T11:09:48.765Z,13.30
2023-12-31T11:12:17.119Z,11.90
2023-12-31T11:14:49.660Z,12.37
2023-12-31T11:17:36.741Z,11.50
2023-12-31T11:20:26.911Z,15.80
2023-12-31T11:23:09.949Z,14.03
2023-12-31T11:25:39.649Z,14.60
2023-12-31T11:28:10.641Z,13.40
2023-12-31T11:31:00.298Z,14.83
2023-12-31T11:33:36.743Z,14.70
2023-12-31T11:36:07.001Z,14.80
2023-12-31T11:38:58.313Z,14.23
2023-12-31T11:41:33.043Z,12.87
2023-12-31T11:44:00.603Z,13.60
2023-12-31T11:46:35.164Z,14.73
2023-12-31T11:49:02.195Z,14.47
2023-12-31T11:51:30.901Z,14.77
2023-12-31T11:54:03.532Z,12.83
2023-12-31T11:56:31.749Z,14.77
2023-12-31T11:58:58.981Z,13.50
2023-12-31T12:01:27.140Z,14.70
2023-12-31T12:03:58.797Z,14.93
2023-12-31T12:06:25.690Z,14.93
2023-12-31T12:08:52.758Z,15.33
2023-12-31T12:11:19.526Z,14.40
2023-12-31T12:13:47.326Z,14.23
2023-12-31T12:16:14.925Z,15.40
2023-12-31T12:18:42.144Z,15.77
2023-12-31T12:21:09.880Z,19.67
2023-12-31T12:23:36.903Z,17.73
2023-12-31T12:26:04.356Z,15.63
2023-12-31T12:28:32.553Z,17.93
2023-12-31T12:30:59.644Z,18.33
2023-12-31T12:33:27.969Z,19.03
2023-12-31T12:35:54.988Z,17.00
2023-12-31T12:38:22.282Z,15.83
2023-12-31T12:40:52.749Z,16.30
2023-12-31T12:43:19.569Z,16.83
2023-12-31T12:46:02.909Z,17.67
2023-12-31T12:48:29.900Z,20.20
2023-12-31T12:50:57.109Z,20.87
2023-12-31T12:53:24.528Z,18.67
2023-12-31T12:55:51.607Z,18.37
2023-12-31T12:58:18.601Z,20.23
2023-12-31T13:00:45.423Z,18.70
2023-12-31T13:03:12.517Z,19.83
2023-12-31T13:05:40.525Z,17.70
2023-12-31T13:08:07.863Z,18.77
2023-12-31T13:10:34.860Z,18.43
2023-12-31T13:13:01.870Z,19.17
2023-12-31T13:15:29.168Z,30.43
2023-12-31T13:17:57.386Z,32.43
2023-12-31T13:20:25.715Z,27.80
2023-12-31T13:22:52.682Z,27.87
2023-12-31T13:25:19.555Z,30.63
2023-12-31T13:27:46.348Z,27.83
2023-12-31T13:30:13.840Z,27.43
2023-12-31T13:32:40.726Z,25.33
2023-12-31T13:35:08.001Z,21.50
2023-12-31T13:37:35.116Z,20.47
2023-12-31T13:40:02.008Z,19.73
2023-12-31T13:42:31.659Z,20.83
2023-12-31T13:44:59.300Z,20.73
2023-12-31T13:47:26.105Z,19.97
2023-12-31T13:49:53.553Z,17.87
2023-12-31T13:52:22.818Z,16.73
2023-12-31T13:54:50.198Z,17.77
2023-12-31T13:57:17.283Z,17.13
2023-12-31T13:59:44.289Z,15.97
2023-12-31T14:02:12.080Z,16.60
2023-12-31T14:04:38.901Z,16.00
2023-12-31T14:07:05.677Z,17.10
2023-12-31T14:09:33.038Z,15.33
2023-12-31T14:12:00.170Z,15.83
2023-12-31T14:14:26.917Z,16.60
2023-12-31T14:16:53.676Z,17.83
2023-12-31T14:19:26.940Z,16.90
2023-12-31T14:21:59.067Z,17.63
2023-12-31T14:24:25.861Z,17.40
2023-12-31T14:26:52.599Z,18.57
2023-12-31T14:29:19.349Z,19.37
2023-12-31T14:31:46.162Z,18.47
2023-12-31T14:34:14.652Z,16.80
2023-12-31T14:36:42.607Z,17.57
2023-12-31T14:39:09.427Z,17.63
2023-12-31T14:41:36.486Z,17.10
2023-12-31T14:44:04.790Z,18.00
2023-12-31T14:46:31.949Z,16.70
2023-12-31T14:48:58.891Z,19.20
2023-12-31T14:51:25.753Z,16.93
2023-12-31T14:53:52.759Z,21.73
2023-12-31T14:56:19.519Z,22.83
2023-12-31T14:58:46.295Z,22.13
2023-12-31T15:01:13.165Z,19.93
2023-12-31T15:03:40.310Z,21.40
2023-12-31T15:06:08.147Z,20.77
2023-12-31T15:08:35.224Z,20.20
2023-12-31T15:11:03.731Z,20.33
2023-12-31T15:13:30.698Z,20.63
2023-12-31T15:15:57.489Z,21.60
2023-12-31T15:18:24.926Z,25.27
2023-12-31T15:20:52.033Z,22.77
2023-12-31T15:23:20.584Z,23.00
2023-12-31T15:25:47.554Z,21.87
2023-12-31T15:28:14.336Z,27.13
2023-12-31T15:30:41.173Z,27.43
2023-12-31T15:33:09.346Z,27.30
2023-12-31T15:35:36.160Z,25.60
2023-12-31T15:38:03.528Z,22.33
2023-12-31T15:40:30.555Z,23.47
2023-12-31T15:42:57.330Z,24.33
2023-12-31T15:45:24.114Z,22.13
2023-12-31T15:47:51.055Z,19.93
2023-12-31T15:50:17.842Z,21.20
2023-12-31T15:52:44.696Z,20.43
2023-12-31T15:55:13.902Z,20.13
2023-12-31T15:57:40.694Z,19.83
2023-12-31T16:00:08.068Z,18.60
2023-12-31T16:02:34.922Z,20.57
2023-12-31T16:05:01.772Z,22.17
2023-12-31T16:07:28.579Z,21.43
2023-12-31T16:09:55.376Z,22.57
2023-12-31T16:12:22.980Z,21.27
2023-12-31T16:14:49.782Z,20.90
2023-12-31T16:17:16.683Z,21.07
2023-12-31T16:19:43.614Z,19.47
2023-12-31T16:22:10.831Z,23.33
2023-12-31T16:24:37.593Z,22.50
2023-12-31T16:27:04.643Z,20.90
2023-12-31T16:29:31.389Z,26.37
2023-12-31T16:31:58.264Z,25.20
2023-12-31T16:34:25.804Z,24.97
2023-12-31T16:36:52.625Z,26.17
2023-12-31T16:39:19.393Z,25.70
2023-12-31T16:41:46.159Z,25.17
2023-12-31T16:44:13.873Z,26.70
2023-12-31T16:46:40.721Z,25.33
2023-12-31T16:49:07.683Z,26.50
2023-12-31T16:51:34.616Z,23.70
2023-12-31T16:54:01.965Z,22.33
2023-12-31T16:56:29.142Z,21.93
2023-12-31T16:58:56.885Z,24.70
2023-12-31T17:01:24.871Z,25.17
2023-12-31T17:03:51.778Z,23.00
2023-12-31T17:06:18.701Z,22.30
2023-12-31T17:08:46.723Z,23.77
2023-12-31T17:11:13.919Z,22.53
2023-12-31T17:13:41.413Z,25.70
2023-12-31T17:16:10.109Z,24.37
2023-12-31T17:18:36.981Z,21.87
2023-12-31T17:21:04.002Z,24.80
2023-12-31T17:23:30.804Z,25.70
2023-12-31T17:25:57.678Z,26.97
2023-12-31T17:28:27.603Z,28.90
2023-12-31T17:30:54.705Z,24.87
2023-12-31T17:33:21.694Z,21.23
2023-12-31T17:35:49.013Z,23.97
2023-12-31T17:38:16.962Z,23.80
2023-12-31T17:40:43.781Z,22.27
2023-12-31T17:43:10.566Z,23.00
2023-12-31T17:45:37.656Z,22.80
2023-12-31T17:48:05.054Z,22.87
2023-12-31T17:50:32.122Z,21.50
2023-12-31T17:52:59.722Z,22.13
2023-12-31T17:55:26.841Z,23.30
2023-12-31T17:57:53.894Z,22.40
2023-12-31T18:00:20.838Z,23.87
2023-12-31T18:02:47.674Z,21.83
2023-12-31T18:05:15.059Z,24.97
2023-12-31T18:07:42.073Z,22.03
2023-12-31T18:10:11.021Z,23.03
2023-12-31T18:12:38.448Z,20.83
2023-12-31T18:15:06.097Z,22.47
2023-12-31T18:17:32.980Z,22.50
2023-12-31T18:20:00.111Z,23.87
2023-12-31T18:22:27.935Z,23.87
2023-12-31T18:24:54.946Z,23.00
2023-12-31T18:27:21.710Z,21.47
2023-12-31T18:29:49.915Z,22.33
2023-12-31T18:32:20.135Z,23.73
2023-12-31T18:34:46.944Z,20.20
2023-12-31T18:37:14.187Z,21.87
2023-12-31T18:39:41.383Z,20.43
2023-12-31T18:42:09.445Z,21.70
2023-12-31T18:44:36.477Z,43.50
2023-12-31T18:47:03.576Z,26.17
2023-12-31T18:49:30.499Z,25.23
2023-12-31T18:51:57.361Z,23.00
2023-12-31T18:54:24.227Z,22.50
2023-12-31T18:56:51.041Z,23.90
2023-12-31T18:59:17.941Z,23.53
2023-12-31T19:01:45.090Z,35.80
2023-12-31T19:04:15.144Z,30.13
2023-12-31T19:06:42.246Z,27.47
2023-12-31T19:09:09.665Z,26.77
2023-12-31T19:11:36.958Z,26.07
2023-12-31T19:14:04.034Z,24.47
2023-12-31T19:16:31.034Z,23.67
2023-12-31T19:18:58.235Z,23.40
2023-12-31T19:21:25.894Z,22.43
2023-12-31T19:23:53.574Z,22.93
2023-12-31T19:26:20.817Z,22.73
2023-12-31T19:28:47.794Z,21.73
2023-12-31T19:31:14.557Z,22.83
2023-12-31T19:33:41.517Z,22.47
2023-12-31T19:36:08.640Z,23.93
2023-12-31T19:38:35.456Z,24.17
2023-12-31T19:41:02.289Z,22.70
2023-12-31T19:46:09.707Z,21.93
2023-12-31T19:48:37.285Z,24.93
2023-12-31T19:51:05.552Z,23.33
2023-12-31T19:53:35.302Z,22.47
2023-12-31T19:56:04.372Z,22.77
2023-12-31T19:58:32.772Z,23.67
2023-12-31T20:01:00.285Z,22.63
2023-12-31T20:03:27.288Z,21.20
2023-12-31T20:05:54.589Z,23.53
2023-12-31T20:08:25.653Z,23.77
2023-12-31T20:10:53.025Z,26.10
2023-12-31T20:13:19.840Z,26.60
2023-12-31T20:15:48.926Z,27.33
2023-12-31T20:18:19.717Z,33.33
2023-12-31T20:20:46.974Z,35.10
2023-12-31T20:23:13.877Z,29.57
2023-12-31T20:25:41.768Z,28.70
2023-12-31T20:28:09.133Z,27.10
2023-12-31T20:30:36.273Z,27.70
2023-12-31T20:33:03.934Z,27.13
2023-12-31T20:35:31.167Z,26.10
2023-12-31T20:37:58.245Z,26.77
2023-12-31T20:40:25.153Z,27.77
2023-12-31T20:42:52.901Z,27.97
2023-12-31T20:45:20.137Z,27.63
2023-12-31T20:47:48.449Z,27.27
2023-12-31T20:50:16.399Z,27.10
2023-12-31T20:52:43.894Z,26.73
2023-12-31T20:55:11.538Z,26.10
2023-12-31T20:57:38.364Z,25.47
2023-12-31T21:00:07.286Z,26.57
2023-12-31T21:02:34.491Z,28.30
2023-12-31T21:05:01.750Z,26.67
2023-12-31T21:07:31.873Z,27.73
2023-12-31T21:09:59.514Z,31.00
2023-12-31T21:12:28.206Z,27.63
2023-12-31T21:14:55.032Z,28.53
2023-12-31T21:17:21.961Z,27.70
2023-12-31T21:19:49.050Z,28.27
2023-12-31T21:22:15.861Z,29.53
2023-12-31T21:24:43.314Z,29.50
2023-12-31T21:27:10.482Z,29.93
2023-12-31T21:29:38.328Z,30.23
2023-12-31T21:32:05.975Z,29.57
2023-12-31T21:34:33.624Z,31.83
2023-12-31T21:37:01.616Z,32.73
2023-12-31T21:39:28.494Z,30.30
2023-12-31T21:41:55.373Z,29.40
2023-12-31T21:44:22.206Z,28.73
2023-12-31T21:46:49.137Z,29.17
2023-12-31T21:49:16.195Z,31.47
2023-12-31T21:51:43.071Z,29.77
2023-12-31T21:54:09.891Z,29.50
2023-12-31T21:59:06.551Z,30.27
2023-12-31T22:01:33.664Z,29.40
2023-12-31T22:04:01.556Z,26.97
2023-12-31T22:06:29.306Z,28.20
2023-12-31T22:08:57.525Z,27.70
2023-12-31T22:11:24.472Z,27.90
2023-12-31T22:13:51.392Z,28.13
2023-12-31T22:16:19.077Z,26.63
2023-12-31T22:18:45.970Z,29.30
2023-12-31T22:21:13.226Z,26.80
2023-12-31T22:23:40.268Z,27.67
2023-12-31T22:26:07.041Z,26.73
2023-12-31T22:28:33.851Z,28.20
2023-12-31T22:31:00.964Z,27.80
2023-12-31T22:33:27.848Z,28.90
2023-12-31T22:35:55.036Z,29.33
2023-12-31T22:38:22.048Z,31.23
2023-12-31T22:40:49.137Z,30.20
2023-12-31T22:43:16.128Z,29.70
2023-12-31T22:45:43.292Z,29.37
2023-12-31T22:48:11.791Z,29.47
2023-12-31T22:50:38.940Z,30.03
2023-12-31T22:53:05.901Z,28.20
2023-12-31T22:55:32.780Z,27.77
2023-12-31T22:57:59.679Z,29.03
2023-12-31T23:00:27.227Z,30.00
2023-12-31T23:02:55.480Z,33.63
2023-12-31T23:05:22.708Z,35.37
2023-12-31T23:07:49.575Z,36.67
2023-12-31T23:10:16.803Z,43.77
2023-12-31T23:12:43.766Z,58.77
2023-12-31T23:15:10.999Z,71.67
2023-12-31T23:17:38.469Z,79.43
2023-12-31T23:20:07.266Z,82.77
2023-12-31T23:22:35.058Z,75.20
2023-12-31T23:25:02.578Z,65.90
2023-12-31T23:27:29.779Z,67.97
2023-12-31T23:29:57.048Z,65.93
2023-12-31T23:32:24.575Z,60.27
2023-12-31T23:34:51.455Z,96.50
2023-12-31T23:37:18.760Z,63.33
2023-12-31T23:39:45.535Z,80.50
2023-12-31T23:42:12.449Z,55.40
2023-12-31T23:44:39.569Z,51.40
2023-12-31T23:47:06.492Z,44.97
2023-12-31T23:49:33.636Z,42.57
2023-12-31T23:52:00.686Z,39.60
2023-12-31T23:54:27.651Z,40.50
2023-12-31T23:56:54.690Z,38.83
2023-12-31T23:59:21.666Z,37.10
